sensor_id;sensor_type;location;lat;lon;timestamp;temperature;humidity
69776;DHT22;57049;51.450;-2.516;2023-12-29T00:00:07;9.01;94.44
69776;DHT22;57049;51.450;-2.516;2023-12-29T00:02:36;9.10;93.92
69776;DHT22;57049;51.450;-2.516;2023-12-29T00:05:02;9.12;93.87
69776;DHT22;57049;51.450;-2.516;2023-12-29T00:07:27;9.08;93.65
69776;DHT22;57049;51.450;-2.516;2023-12-29T00:09:53;9.07;93.87
69776;DHT22;57049;51.450;-2.516;2023-12-29T00:12:19;9.01;93.81
69776;DHT22;57049;51.450;-2.516;2023-12-29T00:14:44;9.05;93.56
69776;DHT22;57049;51.450;-2.516;2023-12-29T00:17:10;9.04;93.39
69776;DHT22;57049;51.450;-2.516;2023-12-29T00:19:35;9.00;93.44
69776;DHT22;57049;51.450;-2.516;2023-12-29T00:22:03;8.96;93.57
69776;DHT22;57049;51.450;-2.516;2023-12-29T00:24:29;8.97;93.39
69776;DHT22;57049;51.450;-2.516;2023-12-29T00:26:57;8.94;93.42
69776;DHT22;57049;51.450;-2.516;2023-12-29T00:29:23;8.97;93.49
69776;DHT22;57049;51.450;-2.516;2023-12-29T00:31:49;8.98;93.34
69776;DHT22;57049;51.450;-2.516;2023-12-29T00:34:14;9.04;93.03
69776;DHT22;57049;51.450;-2.516;2023-12-29T00:36:40;9.05;93.19
69776;DHT22;57049;51.450;-2.516;2023-12-29T00:39:05;9.01;93.26
69776;DHT22;57049;51.450;-2.516;2023-12-29T00:41:32;9.00;93.34
69776;DHT22;57049;51.450;-2.516;2023-12-29T00:43:57;8.98;93.47
69776;DHT22;57049;51.450;-2.516;2023-12-29T00:46:23;9.01;93.52
69776;DHT22;57049;51.450;-2.516;2023-12-29T00:48:48;9.03;93.48
69776;DHT22;57049;51.450;-2.516;2023-12-29T00:51:14;9.03;93.30
69776;DHT22;57049;51.450;-2.516;2023-12-29T00:53:39;9.00;93.35
69776;DHT22;57049;51.450;-2.516;2023-12-29T00:56:11;8.98;93.38
69776;DHT22;57049;51.450;-2.516;2023-12-29T00:58:37;9.01;93.41
69776;DHT22;57049;51.450;-2.516;2023-12-29T01:01:03;9.01;93.56
69776;DHT22;57049;51.450;-2.516;2023-12-29T01:03:28;9.05;93.55
69776;DHT22;57049;51.450;-2.516;2023-12-29T01:05:54;9.08;93.39
69776;DHT22;57049;51.450;-2.516;2023-12-29T01:08:19;9.08;93.32
69776;DHT22;57049;51.450;-2.516;2023-12-29T01:10:45;9.03;93.54
69776;DHT22;57049;51.450;-2.516;2023-12-29T01:13:11;9.01;93.52
69776;DHT22;57049;51.450;-2.516;2023-12-29T01:15:36;9.00;93.72
69776;DHT22;57049;51.450;-2.516;2023-12-29T01:18:02;9.10;93.64
69776;DHT22;57049;51.450;-2.516;2023-12-29T01:20:28;9.10;93.92
69776;DHT22;57049;51.450;-2.516;2023-12-29T01:22:53;9.19;93.78
69776;DHT22;57049;51.450;-2.516;2023-12-29T01:25:19;9.21;93.88
69776;DHT22;57049;51.450;-2.516;2023-12-29T01:27:44;9.21;93.86
69776;DHT22;57049;51.450;-2.516;2023-12-29T01:30:10;9.27;93.96
69776;DHT22;57049;51.450;-2.516;2023-12-29T01:32:36;9.25;94.11
69776;DHT22;57049;51.450;-2.516;2023-12-29T01:35:01;9.22;94.31
69776;DHT22;57049;51.450;-2.516;2023-12-29T01:37:27;9.15;94.48
69776;DHT22;57049;51.450;-2.516;2023-12-29T01:39:52;9.05;94.63
69776;DHT22;57049;51.450;-2.516;2023-12-29T01:42:18;9.08;94.65
69776;DHT22;57049;51.450;-2.516;2023-12-29T01:44:43;9.00;94.71
69776;DHT22;57049;51.450;-2.516;2023-12-29T01:47:15;8.97;94.90
69776;DHT22;57049;51.450;-2.516;2023-12-29T01:49:44;8.98;94.99
69776;DHT22;57049;51.450;-2.516;2023-12-29T01:52:10;8.97;95.07
69776;DHT22;57049;51.450;-2.516;2023-12-29T01:54:39;8.94;95.32
69776;DHT22;57049;51.450;-2.516;2023-12-29T01:57:07;8.92;95.41
69776;DHT22;57049;51.450;-2.516;2023-12-29T01:59:34;8.91;95.52
69776;DHT22;57049;51.450;-2.516;2023-12-29T02:02:01;8.91;95.54
69776;DHT22;57049;51.450;-2.516;2023-12-29T02:04:28;8.94;95.53
69776;DHT22;57049;51.450;-2.516;2023-12-29T02:06:55;8.94;95.55
69776;DHT22;57049;51.450;-2.516;2023-12-29T02:09:21;8.85;95.67
69776;DHT22;57049;51.450;-2.516;2023-12-29T02:11:47;8.84;95.77
69776;DHT22;57049;51.450;-2.516;2023-12-29T02:14:17;8.80;96.00
69776;DHT22;57049;51.450;-2.516;2023-12-29T02:19:40;8.90;95.92
69776;DHT22;57049;51.450;-2.516;2023-12-29T02:22:07;8.96;95.43
69776;DHT22;57049;51.450;-2.516;2023-12-29T02:24:34;8.97;95.04
69776;DHT22;57049;51.450;-2.516;2023-12-29T02:29:45;9.04;93.79
69776;DHT22;57049;51.450;-2.516;2023-12-29T02:32:16;9.10;93.27
69776;DHT22;57049;51.450;-2.516;2023-12-29T02:34:44;9.08;92.95
69776;DHT22;57049;51.450;-2.516;2023-12-29T02:37:13;9.01;93.14
69776;DHT22;57049;51.450;-2.516;2023-12-29T02:39:39;8.94;93.24
69776;DHT22;57049;51.450;-2.516;2023-12-29T02:42:05;8.90;93.24
69776;DHT22;57049;51.450;-2.516;2023-12-29T02:44:30;8.85;93.62
69776;DHT22;57049;51.450;-2.516;2023-12-29T02:46:56;8.85;93.78
69776;DHT22;57049;51.450;-2.516;2023-12-29T02:49:21;8.88;93.87
69776;DHT22;57049;51.450;-2.516;2023-12-29T02:51:47;8.84;94.07
69776;DHT22;57049;51.450;-2.516;2023-12-29T02:54:15;8.80;94.27
69776;DHT22;57049;51.450;-2.516;2023-12-29T02:56:40;8.81;94.46
69776;DHT22;57049;51.450;-2.516;2023-12-29T02:59:05;8.83;94.56
69776;DHT22;57049;51.450;-2.516;2023-12-29T03:01:31;8.81;94.87
69776;DHT22;57049;51.450;-2.516;2023-12-29T03:03:56;8.81;94.98
69776;DHT22;57049;51.450;-2.516;2023-12-29T03:06:22;8.81;95.25
69776;DHT22;57049;51.450;-2.516;2023-12-29T03:08:47;8.81;95.08
69776;DHT22;57049;51.450;-2.516;2023-12-29T03:11:13;8.85;95.12
69776;DHT22;57049;51.450;-2.516;2023-12-29T03:13:38;8.87;95.16
69776;DHT22;57049;51.450;-2.516;2023-12-29T03:16:04;8.88;95.14
69776;DHT22;57049;51.450;-2.516;2023-12-29T03:18:29;8.84;95.26
69776;DHT22;57049;51.450;-2.516;2023-12-29T03:20:54;8.92;95.13
69776;DHT22;57049;51.450;-2.516;2023-12-29T03:23:20;8.90;95.23
69776;DHT22;57049;51.450;-2.516;2023-12-29T03:25:45;8.94;95.30
69776;DHT22;57049;51.450;-2.516;2023-12-29T03:28:11;8.92;95.41
69776;DHT22;57049;51.450;-2.516;2023-12-29T03:30:36;8.97;95.38
69776;DHT22;57049;51.450;-2.516;2023-12-29T03:33:02;9.00;95.37
69776;DHT22;57049;51.450;-2.516;2023-12-29T03:35:27;9.03;95.21
69776;DHT22;57049;51.450;-2.516;2023-12-29T03:37:53;9.03;95.19
69776;DHT22;57049;51.450;-2.516;2023-12-29T03:40:18;9.05;95.19
69776;DHT22;57049;51.450;-2.516;2023-12-29T03:42:44;9.03;95.29
69776;DHT22;57049;51.450;-2.516;2023-12-29T03:45:09;9.05;95.14
69776;DHT22;57049;51.450;-2.516;2023-12-29T03:47:35;9.08;95.10
69776;DHT22;57049;51.450;-2.516;2023-12-29T03:50:01;9.08;94.95
69776;DHT22;57049;51.450;-2.516;2023-12-29T03:52:26;9.07;94.90
69776;DHT22;57049;51.450;-2.516;2023-12-29T03:54:52;9.05;94.98
69776;DHT22;57049;51.450;-2.516;2023-12-29T03:57:17;9.05;95.16
69776;DHT22;57049;51.450;-2.516;2023-12-29T03:59:43;9.04;95.30
69776;DHT22;57049;51.450;-2.516;2023-12-29T04:02:08;9.01;95.46
69776;DHT22;57049;51.450;-2.516;2023-12-29T04:04:37;9.03;95.23
69776;DHT22;57049;51.450;-2.516;2023-12-29T04:07:02;8.98;95.27
69776;DHT22;57049;51.450;-2.516;2023-12-29T04:09:28;8.97;95.16
69776;DHT22;57049;51.450;-2.516;2023-12-29T04:11:53;9.00;94.96
69776;DHT22;57049;51.450;-2.516;2023-12-29T04:14:18;8.97;94.81
69776;DHT22;57049;51.450;-2.516;2023-12-29T04:16:44;8.98;94.69
69776;DHT22;57049;51.450;-2.516;2023-12-29T04:19:09;9.01;94.16
69776;DHT22;57049;51.450;-2.516;2023-12-29T04:21:35;9.03;94.05
69776;DHT22;57049;51.450;-2.516;2023-12-29T04:24:00;8.98;94.14
69776;DHT22;57049;51.450;-2.516;2023-12-29T04:26:26;9.01;93.91
69776;DHT22;57049;51.450;-2.516;2023-12-29T04:28:51;9.07;93.77
69776;DHT22;57049;51.450;-2.516;2023-12-29T04:31:16;9.00;93.77
69776;DHT22;57049;51.450;-2.516;2023-12-29T04:33:42;9.03;93.52
69776;DHT22;57049;51.450;-2.516;2023-12-29T04:36:07;9.01;93.37
69776;DHT22;57049;51.450;-2.516;2023-12-29T04:38:33;8.97;93.64
69776;DHT22;57049;51.450;-2.516;2023-12-29T04:40:58;8.91;93.78
69776;DHT22;57049;51.450;-2.516;2023-12-29T04:43:24;9.01;93.44
69776;DHT22;57049;51.450;-2.516;2023-12-29T04:45:49;9.04;93.53
69776;DHT22;57049;51.450;-2.516;2023-12-29T04:48:15;9.12;93.41
69776;DHT22;57049;51.450;-2.516;2023-12-29T04:50:40;9.15;93.37
69776;DHT22;57049;51.450;-2.516;2023-12-29T04:53:06;9.18;93.09
69776;DHT22;57049;51.450;-2.516;2023-12-29T04:55:31;9.14;93.32
69776;DHT22;57049;51.450;-2.516;2023-12-29T04:57:56;9.18;93.43
69776;DHT22;57049;51.450;-2.516;2023-12-29T05:00:22;9.19;93.33
69776;DHT22;57049;51.450;-2.516;2023-12-29T05:02:50;9.22;93.40
69776;DHT22;57049;51.450;-2.516;2023-12-29T05:05:19;9.25;93.57
69776;DHT22;57049;51.450;-2.516;2023-12-29T05:07:45;9.21;93.70
69776;DHT22;57049;51.450;-2.516;2023-12-29T05:10:10;9.25;93.91
69776;DHT22;57049;51.450;-2.516;2023-12-29T05:12:35;9.19;94.25
69776;DHT22;57049;51.450;-2.516;2023-12-29T05:15:01;9.21;94.48
69776;DHT22;57049;51.450;-2.516;2023-12-29T05:17:26;9.24;95.23
69776;DHT22;57049;51.450;-2.516;2023-12-29T05:19:52;9.08;96.47
69776;DHT22;57049;51.450;-2.516;2023-12-29T05:22:17;9.03;96.86
69776;DHT22;57049;51.450;-2.516;2023-12-29T05:24:43;8.91;97.00
69776;DHT22;57049;51.450;-2.516;2023-12-29T05:27:10;8.81;97.33
69776;DHT22;57049;51.450;-2.516;2023-12-29T05:29:36;8.74;97.52
69776;DHT22;57049;51.450;-2.516;2023-12-29T05:32:01;8.74;97.79
69776;DHT22;57049;51.450;-2.516;2023-12-29T05:34:28;8.64;98.26
69776;DHT22;57049;51.450;-2.516;2023-12-29T05:36:53;8.60;98.13
69776;DHT22;57049;51.450;-2.516;2023-12-29T05:39:19;8.53;98.00
69776;DHT22;57049;51.450;-2.516;2023-12-29T05:41:44;8.49;97.67
69776;DHT22;57049;51.450;-2.516;2023-12-29T05:44:10;8.52;98.23
69776;DHT22;57049;51.450;-2.516;2023-12-29T05:46:35;8.52;97.89
69776;DHT22;57049;51.450;-2.516;2023-12-29T05:49:01;8.53;97.78
69776;DHT22;57049;51.450;-2.516;2023-12-29T05:51:26;8.52;98.08
69776;DHT22;57049;51.450;-2.516;2023-12-29T05:53:52;8.50;98.25
69776;DHT22;57049;51.450;-2.516;2023-12-29T05:56:17;8.45;98.50
69776;DHT22;57049;51.450;-2.516;2023-12-29T05:58:43;8.39;98.57
69776;DHT22;57049;51.450;-2.516;2023-12-29T06:01:09;8.33;98.74
69776;DHT22;57049;51.450;-2.516;2023-12-29T06:03:34;8.24;98.84
69776;DHT22;57049;51.450;-2.516;2023-12-29T06:06:00;8.24;99.09
69776;DHT22;57049;51.450;-2.516;2023-12-29T06:08:25;8.17;99.31
69776;DHT22;57049;51.450;-2.516;2023-12-29T06:10:51;8.25;99.40
69776;DHT22;57049;51.450;-2.516;2023-12-29T06:13:16;8.26;99.41
69776;DHT22;57049;51.450;-2.516;2023-12-29T06:15:42;8.25;99.35
69776;DHT22;57049;51.450;-2.516;2023-12-29T06:18:07;8.24;99.27
69776;DHT22;57049;51.450;-2.516;2023-12-29T06:20:33;8.29;99.41
69776;DHT22;57049;51.450;-2.516;2023-12-29T06:22:59;8.37;99.32
69776;DHT22;57049;51.450;-2.516;2023-12-29T06:25:24;8.37;99.49
69776;DHT22;57049;51.450;-2.516;2023-12-29T06:27:50;8.35;99.53
69776;DHT22;57049;51.450;-2.516;2023-12-29T06:30:16;8.32;99.30
69776;DHT22;57049;51.450;-2.516;2023-12-29T06:32:41;8.26;99.48
69776;DHT22;57049;51.450;-2.516;2023-12-29T06:35:07;8.29;99.36
69776;DHT22;57049;51.450;-2.516;2023-12-29T06:37:36;8.32;99.43
69776;DHT22;57049;51.450;-2.516;2023-12-29T06:40:01;8.32;99.54
69776;DHT22;57049;51.450;-2.516;2023-12-29T06:42:27;8.30;99.69
69776;DHT22;57049;51.450;-2.516;2023-12-29T06:44:52;8.33;99.91
69776;DHT22;57049;51.450;-2.516;2023-12-29T06:47:18;8.36;99.98
69776;DHT22;57049;51.450;-2.516;2023-12-29T06:49:43;8.42;99.99
69776;DHT22;57049;51.450;-2.516;2023-12-29T06:52:09;8.39;99.99
69776;DHT22;57049;51.450;-2.516;2023-12-29T06:54:34;8.37;99.94
69776;DHT22;57049;51.450;-2.516;2023-12-29T06:57:00;8.35;99.86
69776;DHT22;57049;51.450;-2.516;2023-12-29T06:59:25;8.30;99.86
69776;DHT22;57049;51.450;-2.516;2023-12-29T07:01:51;8.33;99.99
69776;DHT22;57049;51.450;-2.516;2023-12-29T07:04:16;8.29;99.99
69776;DHT22;57049;51.450;-2.516;2023-12-29T07:06:42;8.30;99.99
69776;DHT22;57049;51.450;-2.516;2023-12-29T07:09:08;8.32;99.99
69776;DHT22;57049;51.450;-2.516;2023-12-29T07:11:35;8.29;99.99
69776;DHT22;57049;51.450;-2.516;2023-12-29T07:14:01;8.32;99.99
69776;DHT22;57049;51.450;-2.516;2023-12-29T07:16:26;8.30;99.99
69776;DHT22;57049;51.450;-2.516;2023-12-29T07:18:52;8.28;99.99
69776;DHT22;57049;51.450;-2.516;2023-12-29T07:21:17;8.28;99.99
69776;DHT22;57049;51.450;-2.516;2023-12-29T07:23:43;8.28;99.99
69776;DHT22;57049;51.450;-2.516;2023-12-29T07:26:09;8.28;99.99
69776;DHT22;57049;51.450;-2.516;2023-12-29T07:28:34;8.28;99.99
69776;DHT22;57049;51.450;-2.516;2023-12-29T07:31:00;8.26;99.99
69776;DHT22;57049;51.450;-2.516;2023-12-29T07:33:26;8.25;99.99
69776;DHT22;57049;51.450;-2.516;2023-12-29T07:35:51;8.26;99.99
69776;DHT22;57049;51.450;-2.516;2023-12-29T07:38:17;8.25;99.99
69776;DHT22;57049;51.450;-2.516;2023-12-29T07:40:43;8.26;99.99
69776;DHT22;57049;51.450;-2.516;2023-12-29T07:43:09;8.28;99.99
69776;DHT22;57049;51.450;-2.516;2023-12-29T07:45:34;8.26;99.99
69776;DHT22;57049;51.450;-2.516;2023-12-29T07:48:02;8.25;99.99
69776;DHT22;57049;51.450;-2.516;2023-12-29T07:50:27;8.25;99.99
69776;DHT22;57049;51.450;-2.516;2023-12-29T07:52:53;8.24;99.99
69776;DHT22;57049;51.450;-2.516;2023-12-29T07:55:18;8.26;99.99
69776;DHT22;57049;51.450;-2.516;2023-12-29T07:57:44;8.29;99.99
69776;DHT22;57049;51.450;-2.516;2023-12-29T08:00:12;8.33;99.99
69776;DHT22;57049;51.450;-2.516;2023-12-29T08:02:38;8.30;99.99
69776;DHT22;57049;51.450;-2.516;2023-12-29T08:05:03;8.26;99.99
69776;DHT22;57049;51.450;-2.516;2023-12-29T08:07:29;8.30;99.99
69776;DHT22;57049;51.450;-2.516;2023-12-29T08:09:55;8.25;99.99
69776;DHT22;57049;51.450;-2.516;2023-12-29T08:12:20;8.22;99.99
69776;DHT22;57049;51.450;-2.516;2023-12-29T08:14:46;8.15;99.99
69776;DHT22;57049;51.450;-2.516;2023-12-29T08:17:11;8.16;99.99
69776;DHT22;57049;51.450;-2.516;2023-12-29T08:19:38;8.09;99.99
69776;DHT22;57049;51.450;-2.516;2023-12-29T08:22:03;8.05;99.99
69776;DHT22;57049;51.450;-2.516;2023-12-29T08:24:39;8.01;99.99
69776;DHT22;57049;51.450;-2.516;2023-12-29T08:27:09;7.99;99.99
69776;DHT22;57049;51.450;-2.516;2023-12-29T08:29:41;7.98;99.99
69776;DHT22;57049;51.450;-2.516;2023-12-29T08:32:12;7.98;99.99
69776;DHT22;57049;51.450;-2.516;2023-12-29T08:34:48;7.96;99.99
69776;DHT22;57049;51.450;-2.516;2023-12-29T08:37:30;7.99;99.99
69776;DHT22;57049;51.450;-2.516;2023-12-29T08:40:09;7.98;99.99
69776;DHT22;57049;51.450;-2.516;2023-12-29T08:42:43;7.96;99.99
69776;DHT22;57049;51.450;-2.516;2023-12-29T08:45:14;7.94;99.99
69776;DHT22;57049;51.450;-2.516;2023-12-29T08:47:44;7.95;99.99
69776;DHT22;57049;51.450;-2.516;2023-12-29T08:50:13;7.95;99.99
69776;DHT22;57049;51.450;-2.516;2023-12-29T08:52:43;7.96;99.99
69776;DHT22;57049;51.450;-2.516;2023-12-29T08:55:11;8.02;99.99
69776;DHT22;57049;51.450;-2.516;2023-12-29T08:57:38;8.01;99.99
69776;DHT22;57049;51.450;-2.516;2023-12-29T09:00:04;8.01;99.99
69776;DHT22;57049;51.450;-2.516;2023-12-29T09:02:40;8.02;99.99
69776;DHT22;57049;51.450;-2.516;2023-12-29T09:05:09;8.05;99.99
69776;DHT22;57049;51.450;-2.516;2023-12-29T09:07:50;8.02;99.99
69776;DHT22;57049;51.450;-2.516;2023-12-29T09:10:18;8.03;99.99
69776;DHT22;57049;51.450;-2.516;2023-12-29T09:12:52;8.13;99.99
69776;DHT22;57049;51.450;-2.516;2023-12-29T09:15:32;8.09;99.99
69776;DHT22;57049;51.450;-2.516;2023-12-29T09:18:00;8.07;99.99
69776;DHT22;57049;51.450;-2.516;2023-12-29T09:20:59;8.15;99.99
69776;DHT22;57049;51.450;-2.516;2023-12-29T09:23:29;8.19;99.99
69776;DHT22;57049;51.450;-2.516;2023-12-29T09:26:12;8.21;99.99
69776;DHT22;57049;51.450;-2.516;2023-12-29T09:28:42;8.22;99.99
69776;DHT22;57049;51.450;-2.516;2023-12-29T09:31:23;8.24;99.99
69776;DHT22;57049;51.450;-2.516;2023-12-29T09:33:49;8.25;99.99
69776;DHT22;57049;51.450;-2.516;2023-12-29T09:36:34;8.19;99.99
69776;DHT22;57049;51.450;-2.516;2023-12-29T09:39:02;8.16;99.99
69776;DHT22;57049;51.450;-2.516;2023-12-29T09:41:57;8.21;99.99
69776;DHT22;57049;51.450;-2.516;2023-12-29T09:44:36;8.19;99.99
69776;DHT22;57049;51.450;-2.516;2023-12-29T09:50:33;8.22;99.99
69776;DHT22;57049;51.450;-2.516;2023-12-29T09:53:01;8.26;99.99
69776;DHT22;57049;51.450;-2.516;2023-12-29T09:55:45;8.32;99.99
69776;DHT22;57049;51.450;-2.516;2023-12-29T09:58:21;8.32;99.99
69776;DHT22;57049;51.450;-2.516;2023-12-29T10:00:52;8.30;99.99
69776;DHT22;57049;51.450;-2.516;2023-12-29T10:03:21;8.32;99.99
69776;DHT22;57049;51.450;-2.516;2023-12-29T10:05:54;8.37;99.99
69776;DHT22;57049;51.450;-2.516;2023-12-29T10:11:28;8.49;99.99
69776;DHT22;57049;51.450;-2.516;2023-12-29T10:14:44;8.57;99.99
69776;DHT22;57049;51.450;-2.516;2023-12-29T10:17:17;8.64;99.99
69776;DHT22;57049;51.450;-2.516;2023-12-29T10:20:11;8.76;99.99
69776;DHT22;57049;51.450;-2.516;2023-12-29T10:26:13;9.03;99.99
69776;DHT22;57049;51.450;-2.516;2023-12-29T10:29:07;8.98;99.99
69776;DHT22;57049;51.450;-2.516;2023-12-29T10:31:48;8.83;99.99
69776;DHT22;57049;51.450;-2.516;2023-12-29T10:34:20;8.64;99.99
69776;DHT22;57049;51.450;-2.516;2023-12-29T10:36:52;8.52;99.89
69776;DHT22;57049;51.450;-2.516;2023-12-29T10:39:25;8.39;99.26
69776;DHT22;57049;51.450;-2.516;2023-12-29T10:42:08;8.28;98.84
69776;DHT22;57049;51.450;-2.516;2023-12-29T10:44:38;8.22;98.24
69776;DHT22;57049;51.450;-2.516;2023-12-29T10:47:18;8.33;98.41
69776;DHT22;57049;51.450;-2.516;2023-12-29T10:49:46;8.49;98.70
69776;DHT22;57049;51.450;-2.516;2023-12-29T10:52:21;8.49;98.39
69776;DHT22;57049;51.450;-2.516;2023-12-29T10:55:04;8.37;98.15
69776;DHT22;57049;51.450;-2.516;2023-12-29T10:57:39;8.40;98.39
69776;DHT22;57049;51.450;-2.516;2023-12-29T11:00:10;8.39;98.31
69776;DHT22;57049;51.450;-2.516;2023-12-29T11:02:56;8.49;98.45
69776;DHT22;57049;51.450;-2.516;2023-12-29T11:05:25;8.52;98.79
69776;DHT22;57049;51.450;-2.516;2023-12-29T11:08:02;8.52;98.81
69776;DHT22;57049;51.450;-2.516;2023-12-29T11:10:51;8.63;98.89
69776;DHT22;57049;51.450;-2.516;2023-12-29T11:13:27;8.67;99.34
69776;DHT22;57049;51.450;-2.516;2023-12-29T11:16:03;8.71;99.61
69776;DHT22;57049;51.450;-2.516;2023-12-29T11:18:35;8.83;99.63
69776;DHT22;57049;51.450;-2.516;2023-12-29T11:21:23;8.91;99.75
69776;DHT22;57049;51.450;-2.516;2023-12-29T11:23:56;9.04;99.39
69776;DHT22;57049;51.450;-2.516;2023-12-29T11:26:31;9.01;99.16
69776;DHT22;57049;51.450;-2.516;2023-12-29T11:29:00;9.01;99.26
69776;DHT22;57049;51.450;-2.516;2023-12-29T11:31:31;8.97;99.19
69776;DHT22;57049;51.450;-2.516;2023-12-29T11:34:21;8.91;98.93
69776;DHT22;57049;51.450;-2.516;2023-12-29T11:36:50;8.84;98.99
69776;DHT22;57049;51.450;-2.516;2023-12-29T11:42:33;8.90;98.92
69776;DHT22;57049;51.450;-2.516;2023-12-29T11:45:31;8.94;98.37
69776;DHT22;57049;51.450;-2.516;2023-12-29T11:48:08;9.01;98.03
69776;DHT22;57049;51.450;-2.516;2023-12-29T11:50:45;9.12;98.02
69776;DHT22;57049;51.450;-2.516;2023-12-29T11:54:05;9.35;97.76
69776;DHT22;57049;51.450;-2.516;2023-12-29T11:57:20;9.42;97.32
69776;DHT22;57049;51.450;-2.516;2023-12-29T12:03:30;9.28;96.80
69776;DHT22;57049;51.450;-2.516;2023-12-29T12:23:51;9.24;97.14
69776;DHT22;57049;51.450;-2.516;2023-12-29T12:26:51;9.18;97.39
69776;DHT22;57049;51.450;-2.516;2023-12-29T12:29:39;9.14;97.46
69776;DHT22;57049;51.450;-2.516;2023-12-29T12:35:46;9.21;97.63
69776;DHT22;57049;51.450;-2.516;2023-12-29T12:39:11;9.19;97.77
69776;DHT22;57049;51.450;-2.516;2023-12-29T12:45:59;9.42;97.89
69776;DHT22;57049;51.450;-2.516;2023-12-29T12:52:04;10.07;97.93
69776;DHT22;57049;51.450;-2.516;2023-12-29T13:02:31;10.44;94.53
69776;DHT22;57049;51.450;-2.516;2023-12-29T13:05:39;10.30;93.56
69776;DHT22;57049;51.450;-2.516;2023-12-29T13:08:19;10.17;93.27
69776;DHT22;57049;51.450;-2.516;2023-12-29T13:17:35;10.16;94.25
69776;DHT22;57049;51.450;-2.516;2023-12-29T13:24:14;9.87;94.33
69776;DHT22;57049;51.450;-2.516;2023-12-29T13:27:13;9.90;94.03
69776;DHT22;57049;51.450;-2.516;2023-12-29T13:36:54;10.31;91.57
69776;DHT22;57049;51.450;-2.516;2023-12-29T13:40:02;10.00;92.18
69776;DHT22;57049;51.450;-2.516;2023-12-29T13:42:46;9.93;92.77
69776;DHT22;57049;51.450;-2.516;2023-12-29T13:45:30;9.90;92.63
69776;DHT22;57049;51.450;-2.516;2023-12-29T13:58:24;10.01;92.09
69776;DHT22;57049;51.450;-2.516;2023-12-29T14:01:20;10.25;91.67
69776;DHT22;57049;51.450;-2.516;2023-12-29T14:04:12;10.45;91.40
69776;DHT22;57049;51.450;-2.516;2023-12-29T14:06:58;10.43;91.29
69776;DHT22;57049;51.450;-2.516;2023-12-29T14:16:40;10.62;91.24
69776;DHT22;57049;51.450;-2.516;2023-12-29T14:22:48;10.27;91.82
69776;DHT22;57049;51.450;-2.516;2023-12-29T14:29:06;9.92;92.90
69776;DHT22;57049;51.450;-2.516;2023-12-29T14:32:10;9.85;93.12
69776;DHT22;57049;51.450;-2.516;2023-12-29T14:34:47;9.78;93.30
69776;DHT22;57049;51.450;-2.516;2023-12-29T14:37:54;9.69;93.40
69776;DHT22;57049;51.450;-2.516;2023-12-29T14:43:43;9.43;93.64
69776;DHT22;57049;51.450;-2.516;2023-12-29T14:46:31;9.31;94.12
69776;DHT22;57049;51.450;-2.516;2023-12-29T14:49:02;9.27;94.47
69776;DHT22;57049;51.450;-2.516;2023-12-29T14:51:40;9.19;94.67
69776;DHT22;57049;51.450;-2.516;2023-12-29T14:54:11;9.19;94.89
69776;DHT22;57049;51.450;-2.516;2023-12-29T14:57:22;9.22;94.79
69776;DHT22;57049;51.450;-2.516;2023-12-29T15:00:25;9.29;95.05
69776;DHT22;57049;51.450;-2.516;2023-12-29T15:02:57;9.36;94.81
69776;DHT22;57049;51.450;-2.516;2023-12-29T15:08:54;9.25;93.40
69776;DHT22;57049;51.450;-2.516;2023-12-29T15:11:59;9.11;93.16
69776;DHT22;57049;51.450;-2.516;2023-12-29T15:14:43;9.01;93.32
69776;DHT22;57049;51.450;-2.516;2023-12-29T15:23:53;8.68;94.09
69776;DHT22;57049;51.450;-2.516;2023-12-29T15:26:28;8.61;94.17
69776;DHT22;57049;51.450;-2.516;2023-12-29T15:32:58;8.49;94.52
69776;DHT22;57049;51.450;-2.516;2023-12-29T15:35:49;8.46;94.48
69776;DHT22;57049;51.450;-2.516;2023-12-29T15:41:44;8.40;94.12
69776;DHT22;57049;51.450;-2.516;2023-12-29T15:44:41;8.36;93.99
69776;DHT22;57049;51.450;-2.516;2023-12-29T15:47:19;8.40;94.02
69776;DHT22;57049;51.450;-2.516;2023-12-29T15:50:20;8.46;94.14
69776;DHT22;57049;51.450;-2.516;2023-12-29T15:53:17;8.45;94.28
69776;DHT22;57049;51.450;-2.516;2023-12-29T15:56:15;8.42;94.29
69776;DHT22;57049;51.450;-2.516;2023-12-29T15:59:13;8.35;94.57
69776;DHT22;57049;51.450;-2.516;2023-12-29T16:01:54;8.33;94.80
69776;DHT22;57049;51.450;-2.516;2023-12-29T16:04:47;8.29;95.03
69776;DHT22;57049;51.450;-2.516;2023-12-29T16:11:27;8.35;95.48
69776;DHT22;57049;51.450;-2.516;2023-12-29T16:14:05;8.32;95.57
69776;DHT22;57049;51.450;-2.516;2023-12-29T16:17:16;8.24;95.77
69776;DHT22;57049;51.450;-2.516;2023-12-29T16:20:22;8.16;96.11
69776;DHT22;57049;51.450;-2.516;2023-12-29T16:23:48;8.12;96.29
69776;DHT22;57049;51.450;-2.516;2023-12-29T16:26:17;8.05;96.52
69776;DHT22;57049;51.450;-2.516;2023-12-29T16:29:16;8.01;96.73
69776;DHT22;57049;51.450;-2.516;2023-12-29T16:32:00;7.99;96.83
69776;DHT22;57049;51.450;-2.516;2023-12-29T16:34:29;7.98;96.80
69776;DHT22;57049;51.450;-2.516;2023-12-29T16:37:18;7.98;97.00
69776;DHT22;57049;51.450;-2.516;2023-12-29T16:40:27;7.99;97.26
69776;DHT22;57049;51.450;-2.516;2023-12-29T16:43:13;8.03;97.39
69776;DHT22;57049;51.450;-2.516;2023-12-29T16:45:44;8.07;97.51
69776;DHT22;57049;51.450;-2.516;2023-12-29T16:48:32;8.16;97.50
69776;DHT22;57049;51.450;-2.516;2023-12-29T16:51:00;8.17;97.44
69776;DHT22;57049;51.450;-2.516;2023-12-29T16:53:39;8.15;97.49
69776;DHT22;57049;51.450;-2.516;2023-12-29T16:56:12;8.10;97.45
69776;DHT22;57049;51.450;-2.516;2023-12-29T16:58:41;8.09;97.46
69776;DHT22;57049;51.450;-2.516;2023-12-29T17:01:45;8.07;97.66
69776;DHT22;57049;51.450;-2.516;2023-12-29T17:04:22;8.10;97.68
69776;DHT22;57049;51.450;-2.516;2023-12-29T17:13:36;8.19;95.28
69776;DHT22;57049;51.450;-2.516;2023-12-29T17:16:15;8.16;94.42
69776;DHT22;57049;51.450;-2.516;2023-12-29T17:21:55;8.01;91.13
69776;DHT22;57049;51.450;-2.516;2023-12-29T17:24:36;7.95;90.33
69776;DHT22;57049;51.450;-2.516;2023-12-29T17:27:34;7.88;90.81
69776;DHT22;57049;51.450;-2.516;2023-12-29T17:30:06;7.82;91.01
69776;DHT22;57049;51.450;-2.516;2023-12-29T17:32:57;7.75;91.51
69776;DHT22;57049;51.450;-2.516;2023-12-29T17:35:32;7.60;92.06
69776;DHT22;57049;51.450;-2.516;2023-12-29T17:38:09;7.54;92.83
69776;DHT22;57049;51.450;-2.516;2023-12-29T17:41:07;7.51;93.52
69776;DHT22;57049;51.450;-2.516;2023-12-29T17:43:46;7.44;93.91
69776;DHT22;57049;51.450;-2.516;2023-12-29T17:46:17;7.38;94.29
69776;DHT22;57049;51.450;-2.516;2023-12-29T17:49:01;7.27;94.81
69776;DHT22;57049;51.450;-2.516;2023-12-29T17:52:23;7.19;95.10
69776;DHT22;57049;51.450;-2.516;2023-12-29T17:54:54;7.23;95.25
69776;DHT22;57049;51.450;-2.516;2023-12-29T17:57:39;7.26;95.41
69776;DHT22;57049;51.450;-2.516;2023-12-29T18:00:17;7.24;95.53
69776;DHT22;57049;51.450;-2.516;2023-12-29T18:02:43;7.26;95.64
69776;DHT22;57049;51.450;-2.516;2023-12-29T18:05:10;7.20;95.79
69776;DHT22;57049;51.450;-2.516;2023-12-29T18:07:38;7.16;95.83
69776;DHT22;57049;51.450;-2.516;2023-12-29T18:10:04;7.14;95.62
69776;DHT22;57049;51.450;-2.516;2023-12-29T18:12:32;7.14;95.50
69776;DHT22;57049;51.450;-2.516;2023-12-29T18:15:00;7.12;95.69
69776;DHT22;57049;51.450;-2.516;2023-12-29T18:17:26;7.09;95.72
69776;DHT22;57049;51.450;-2.516;2023-12-29T18:19:55;7.04;95.86